Kearney, Missouri
Current Conditions -  °F | °C
As of 3:35 AM on Monday 24 Nov 2014 (Local Time) from KGPH Reporting Station
Scattered Clouds Scattered Clouds  
Wind Chill: 23°   Ceiling: Unl
Heat Index: 34°   Visibility: 10mi
Dew Point: 25°   Wind: 18mph
Humidity: 70%   Direction: 290°WNW
Pressure: 29.56"   Gusts: 24mph
Location:  39.37°N, 94.36°W
Report Text: KGPH 240935Z AUTO 29016G21KT 10SM SCT037 01/M04 A2956 RMK AO2
Loading
Personal Weather Stations






























Interactive Weather Map New forecast layout! Learn more

10-Day Weather Forecast

Advertisements
Track Severe Weather on mobile